createdAt,value
2022-10-01T00:03:45.353Z,82.66
2022-10-01T00:06:30.404Z,82.19
2022-10-01T00:09:15.863Z,82.23
2022-10-01T00:12:00.878Z,82.37
2022-10-01T00:14:46.091Z,81.90
2022-10-01T00:17:30.947Z,81.07
2022-10-01T00:20:15.890Z,82.23
2022-10-01T00:23:00.598Z,81.25
2022-10-01T00:25:45.487Z,81.32
2022-10-01T00:28:30.255Z,81.67
2022-10-01T00:31:16.060Z,85.70
2022-10-01T00:34:05.007Z,87.12
2022-10-01T00:36:49.869Z,89.69
2022-10-01T00:39:34.756Z,92.00
2022-10-01T00:42:23.148Z,93.78
2022-10-01T00:45:11.482Z,95.77
2022-10-01T00:47:58.335Z,99.12
2022-10-01T00:50:44.178Z,99.52
2022-10-01T00:53:29.374Z,99.98
2022-10-01T00:56:14.311Z,100.00
2022-10-01T00:59:00.090Z,100.00
2022-10-01T01:01:45.025Z,100.00
2022-10-01T01:04:29.874Z,100.00
2022-10-01T01:07:15.823Z,100.00
2022-10-01T01:10:01.543Z,100.00
2022-10-01T01:13:28.284Z,100.00
2022-10-01T01:16:22.778Z,100.00
2022-10-01T01:19:14.765Z,100.00
2022-10-01T01:22:04.438Z,100.00
2022-10-01T01:25:12.036Z,100.00
2022-10-01T01:28:21.632Z,100.00
2022-10-01T01:31:19.993Z,100.00
2022-10-01T01:34:12.304Z,100.00
2022-10-01T01:37:11.803Z,100.00
2022-10-01T01:39:59.613Z,100.00
2022-10-01T01:42:46.795Z,100.00
2022-10-01T01:45:35.454Z,100.00
2022-10-01T01:48:23.440Z,100.00
2022-10-01T01:51:16.367Z,100.00
2022-10-01T01:54:01.711Z,100.00
2022-10-01T01:56:49.523Z,100.00
2022-10-01T01:59:35.747Z,100.00
2022-10-01T02:02:28.613Z,100.00
2022-10-01T02:05:17.676Z,100.00
2022-10-01T02:08:16.071Z,100.00
2022-10-01T02:11:19.609Z,100.00
2022-10-01T02:14:27.780Z,100.00
2022-10-01T02:17:36.125Z,100.00
2022-10-01T02:20:29.990Z,100.00
2022-10-01T02:23:19.530Z,100.00
2022-10-01T02:26:12.297Z,100.00
2022-10-01T02:29:04.344Z,100.00
2022-10-01T02:31:55.457Z,100.00
2022-10-01T02:34:41.743Z,100.00
2022-10-01T02:37:28.176Z,100.00
2022-10-01T02:40:18.457Z,100.00
2022-10-01T02:43:33.660Z,100.00
2022-10-01T02:46:29.333Z,100.00
2022-10-01T02:49:14.908Z,100.00
2022-10-01T02:52:18.079Z,100.00
2022-10-01T02:55:14.650Z,100.00
2022-10-01T02:57:59.444Z,100.00
2022-10-01T03:00:44.806Z,100.00
2022-10-01T03:03:31.519Z,100.00
2022-10-01T03:06:16.996Z,100.00
2022-10-01T03:09:02.415Z,100.00
2022-10-01T03:11:47.439Z,100.00
2022-10-01T03:14:32.881Z,100.00
2022-10-01T03:17:17.927Z,100.00
2022-10-01T03:20:03.728Z,100.00
2022-10-01T03:22:48.627Z,100.00
2022-10-01T03:25:33.371Z,100.00
2022-10-01T03:28:18.294Z,100.00
2022-10-01T03:31:10.702Z,100.00
2022-10-01T03:33:57.872Z,100.00
2022-10-01T03:36:43.075Z,100.00
2022-10-01T03:39:28.218Z,100.00
2022-10-01T03:42:13.036Z,100.00
2022-10-01T03:44:57.893Z,100.00
2022-10-01T03:47:42.657Z,100.00
2022-10-01T03:50:27.567Z,100.00
2022-10-01T03:53:12.506Z,100.00
2022-10-01T03:55:58.751Z,100.00
2022-10-01T03:58:44.171Z,100.00
2022-10-01T04:01:29.170Z,100.00
2022-10-01T04:04:14.880Z,100.00
2022-10-01T04:06:59.702Z,100.00
2022-10-01T04:09:44.633Z,100.00
2022-10-01T04:12:29.704Z,100.00
2022-10-01T04:15:15.163Z,100.00
2022-10-01T04:18:00.487Z,100.00
2022-10-01T04:20:45.252Z,100.00
2022-10-01T04:23:30.244Z,100.00
2022-10-01T04:26:15.191Z,100.00
2022-10-01T04:29:00.133Z,100.00
2022-10-01T04:31:45.134Z,100.00
2022-10-01T04:34:48.991Z,100.00
2022-10-01T04:37:34.161Z,100.00
2022-10-01T04:40:18.941Z,100.00
2022-10-01T04:43:05.542Z,100.00
2022-10-01T04:45:50.560Z,100.00
2022-10-01T04:48:35.363Z,100.00
2022-10-01T04:51:20.228Z,100.00
2022-10-01T04:54:05.137Z,100.00
2022-10-01T04:56:49.955Z,100.00
2022-10-01T04:59:34.687Z,100.00
2022-10-01T05:02:19.621Z,100.00
2022-10-01T05:05:06.828Z,100.00
2022-10-01T05:07:51.543Z,100.00
2022-10-01T05:10:36.548Z,100.00
2022-10-01T05:13:21.338Z,100.00
2022-10-01T05:16:07.523Z,100.00
2022-10-01T05:18:54.645Z,100.00
2022-10-01T05:21:39.610Z,100.00
2022-10-01T05:24:25.042Z,100.00
2022-10-01T05:27:13.231Z,100.00
2022-10-01T05:29:57.982Z,100.00
2022-10-01T05:32:43.030Z,100.00
2022-10-01T05:35:28.677Z,100.00
2022-10-01T05:38:13.856Z,100.00
2022-10-01T05:40:58.607Z,100.00
2022-10-01T05:43:43.920Z,100.00
2022-10-01T05:46:28.769Z,100.00
2022-10-01T05:49:13.730Z,100.00
2022-10-01T05:52:00.537Z,100.00
2022-10-01T05:54:45.315Z,100.00
2022-10-01T05:57:31.041Z,100.00
2022-10-01T06:00:16.235Z,100.00
2022-10-01T06:03:04.744Z,100.00
2022-10-01T06:05:49.891Z,100.00
2022-10-01T06:08:35.244Z,100.00
2022-10-01T06:11:22.486Z,100.00
2022-10-01T06:14:07.628Z,100.00
2022-10-01T06:16:53.420Z,100.00
2022-10-01T06:19:38.494Z,100.00
2022-10-01T06:22:23.550Z,100.00
2022-10-01T06:25:14.891Z,100.00
2022-10-01T06:28:01.179Z,100.00
2022-10-01T06:30:46.896Z,100.00
2022-10-01T06:33:32.028Z,100.00
2022-10-01T06:36:16.938Z,100.00
2022-10-01T06:39:01.678Z,100.00
2022-10-01T06:41:48.004Z,100.00
2022-10-01T06:44:33.078Z,100.00
2022-10-01T06:47:17.883Z,100.00
2022-10-01T06:50:02.805Z,100.00
2022-10-01T06:52:50.610Z,100.00
2022-10-01T06:55:36.839Z,100.00
2022-10-01T06:58:26.170Z,100.00
2022-10-01T07:01:11.403Z,100.00
2022-10-01T07:03:56.394Z,100.00
2022-10-01T07:06:41.302Z,100.00
2022-10-01T07:09:26.527Z,100.00
2022-10-01T07:12:11.732Z,100.00
2022-10-01T07:14:56.647Z,100.00
2022-10-01T07:17:49.960Z,100.00
2022-10-01T07:20:39.372Z,100.00
2022-10-01T07:23:24.398Z,100.00
2022-10-01T07:26:09.183Z,100.00
2022-10-01T07:28:55.078Z,100.00
2022-10-01T07:31:39.833Z,100.00
2022-10-01T07:34:26.077Z,100.00
2022-10-01T07:37:11.299Z,100.00
2022-10-01T07:39:56.116Z,100.00
2022-10-01T07:42:41.104Z,100.00
2022-10-01T07:45:26.370Z,100.00
2022-10-01T07:48:11.312Z,100.00
2022-10-01T07:50:58.630Z,100.00
2022-10-01T07:53:43.323Z,100.00
2022-10-01T07:56:28.260Z,100.00
2022-10-01T07:59:13.067Z,100.00
2022-10-01T08:01:58.453Z,100.00
2022-10-01T08:05:01.983Z,100.00
2022-10-01T08:07:48.373Z,100.00
2022-10-01T08:10:36.346Z,100.00
2022-10-01T08:13:24.819Z,100.00
2022-10-01T08:16:11.731Z,100.00
2022-10-01T08:18:56.774Z,100.00
2022-10-01T08:21:42.521Z,98.52
2022-10-01T08:24:27.588Z,98.32
2022-10-01T08:27:12.713Z,98.22
2022-10-01T08:29:57.561Z,98.15
2022-10-01T08:32:42.479Z,97.81
2022-10-01T08:35:28.439Z,99.52
2022-10-01T08:38:14.453Z,99.65
2022-10-01T08:41:07.096Z,98.83
2022-10-01T08:43:52.880Z,98.55
2022-10-01T08:46:37.803Z,98.68
2022-10-01T08:49:38.810Z,100.00
2022-10-01T08:52:28.413Z,100.00
2022-10-01T08:55:22.095Z,98.58
2022-10-01T08:58:12.452Z,98.60
2022-10-01T09:00:57.459Z,98.68
2022-10-01T09:03:42.318Z,99.48
2022-10-01T09:06:28.171Z,99.79
2022-10-01T09:09:56.096Z,99.93
2022-10-01T09:12:46.948Z,99.65
2022-10-01T09:15:47.108Z,100.00
2022-10-01T09:18:45.256Z,100.00
2022-10-01T09:21:50.604Z,100.00
2022-10-01T09:24:46.824Z,100.00
2022-10-01T09:27:31.871Z,100.00
2022-10-01T09:30:21.644Z,100.00
2022-10-01T09:33:20.046Z,99.80
2022-10-01T09:36:16.081Z,99.10
2022-10-01T09:39:12.245Z,100.00
2022-10-01T09:41:57.601Z,99.50
2022-10-01T09:44:42.661Z,96.77
2022-10-01T09:47:28.244Z,97.00
2022-10-01T09:50:17.909Z,95.29
2022-10-01T09:53:03.431Z,88.42
2022-10-01T09:55:54.008Z,89.59
2022-10-01T09:58:44.971Z,90.16
2022-10-01T10:01:46.551Z,85.73
2022-10-01T10:04:33.665Z,89.42
2022-10-01T10:07:19.699Z,82.45
2022-10-01T10:10:23.419Z,87.28
2022-10-01T10:13:14.709Z,87.04
2022-10-01T10:16:00.208Z,86.69
2022-10-01T10:18:51.945Z,84.61
2022-10-01T10:21:37.676Z,78.68
2022-10-01T10:24:34.166Z,74.37
2022-10-01T10:27:26.598Z,78.16
2022-10-01T10:30:17.650Z,82.30
2022-10-01T10:33:05.673Z,81.57
2022-10-01T10:36:02.344Z,82.22
2022-10-01T10:38:50.592Z,76.68
2022-10-01T10:41:35.887Z,73.37
2022-10-01T10:44:24.196Z,69.90
2022-10-01T10:47:15.208Z,69.04
2022-10-01T10:50:03.961Z,69.07
2022-10-01T10:52:48.965Z,71.77
2022-10-01T10:55:33.816Z,71.95
2022-10-01T10:58:19.078Z,72.75
2022-10-01T11:01:13.037Z,77.85
2022-10-01T11:04:00.802Z,79.41
2022-10-01T11:06:55.231Z,83.28
2022-10-01T11:10:12.990Z,80.64
2022-10-01T11:13:06.539Z,73.69
2022-10-01T11:16:29.477Z,72.86
2022-10-01T11:19:35.040Z,73.87
2022-10-01T11:22:29.208Z,67.87
2022-10-01T11:25:24.878Z,69.19
2022-10-01T11:28:37.056Z,68.25
2022-10-01T11:31:43.948Z,65.20
2022-10-01T11:34:58.300Z,61.12
2022-10-01T11:37:59.714Z,62.52
2022-10-01T11:41:13.041Z,63.48
2022-10-01T11:44:15.401Z,69.03
2022-10-01T11:47:17.033Z,72.63
2022-10-01T11:50:15.631Z,72.24
2022-10-01T11:53:09.302Z,74.24
2022-10-01T11:56:51.668Z,73.24
2022-10-01T11:59:49.956Z,72.93
2022-10-01T12:02:45.730Z,72.47
2022-10-01T12:05:33.767Z,72.00
2022-10-01T12:08:24.888Z,73.68
2022-10-01T12:11:20.626Z,76.46
2022-10-01T12:14:20.347Z,77.21
2022-10-01T12:17:25.678Z,73.99
2022-10-01T12:20:25.944Z,76.18
2022-10-01T12:23:17.891Z,76.09
2022-10-01T12:26:38.811Z,73.04
2022-10-01T12:29:51.589Z,73.83
2022-10-01T12:32:39.509Z,72.74
2022-10-01T12:35:47.694Z,73.63
2022-10-01T12:38:49.716Z,75.23
2022-10-01T12:42:05.758Z,75.30
2022-10-01T12:45:10.167Z,78.78
2022-10-01T12:48:35.952Z,79.01
2022-10-01T12:51:39.036Z,76.05
2022-10-01T12:54:45.625Z,77.68
2022-10-01T12:57:39.828Z,76.24
2022-10-01T13:00:27.205Z,76.86
2022-10-01T13:03:37.246Z,75.17
2022-10-01T13:06:56.764Z,75.29
2022-10-01T13:10:12.284Z,73.50
2022-10-01T13:13:16.822Z,73.15
2022-10-01T13:16:13.018Z,74.00
2022-10-01T13:19:05.550Z,72.04
2022-10-01T13:22:08.937Z,65.31
2022-10-01T13:25:26.825Z,64.05
2022-10-01T13:28:22.987Z,62.68
2022-10-01T13:31:19.013Z,63.06
2022-10-01T13:34:24.313Z,73.46
2022-10-01T13:37:32.594Z,76.78
2022-10-01T13:40:24.807Z,81.75
2022-10-01T13:43:21.093Z,81.70
2022-10-01T13:46:09.105Z,81.80
2022-10-01T13:48:55.164Z,81.79
2022-10-01T13:51:43.734Z,82.30
2022-10-01T13:54:43.872Z,82.09
2022-10-01T13:57:38.297Z,79.58
2022-10-01T14:00:24.762Z,78.51
2022-10-01T14:03:38.116Z,78.41
2022-10-01T14:06:30.772Z,77.15
2022-10-01T14:09:48.397Z,77.57
2022-10-01T14:12:55.008Z,77.54
2022-10-01T14:15:58.680Z,78.21
2022-10-01T14:18:48.794Z,79.95
2022-10-01T14:21:49.756Z,79.15
2022-10-01T14:25:00.500Z,76.98
2022-10-01T14:27:52.921Z,78.08
2022-10-01T14:31:07.171Z,78.81
2022-10-01T14:34:20.097Z,81.40
2022-10-01T14:37:16.950Z,80.73
2022-10-01T14:40:23.693Z,80.76
2022-10-01T14:43:39.068Z,80.27
2022-10-01T14:46:24.297Z,82.23
2022-10-01T14:49:30.211Z,81.80
2022-10-01T14:52:22.560Z,78.43
2022-10-01T14:55:13.761Z,78.47
2022-10-01T14:57:58.929Z,77.30
2022-10-01T15:00:51.140Z,68.05
2022-10-01T15:03:41.897Z,66.56
2022-10-01T15:06:29.600Z,65.52
2022-10-01T15:09:18.517Z,65.44
2022-10-01T15:12:05.678Z,63.13
2022-10-01T15:14:54.353Z,63.13
2022-10-01T15:17:42.150Z,63.39
2022-10-01T15:20:27.522Z,62.08
2022-10-01T15:23:12.572Z,62.31
2022-10-01T15:26:00.112Z,63.39
2022-10-01T15:28:44.783Z,64.05
2022-10-01T15:31:30.355Z,64.79
2022-10-01T15:34:22.488Z,65.32
2022-10-01T15:37:17.745Z,65.92
2022-10-01T15:40:05.815Z,65.31
2022-10-01T15:43:14.759Z,66.61
2022-10-01T15:46:05.616Z,67.73
2022-10-01T15:49:18.270Z,65.09
2022-10-01T15:52:23.124Z,66.17
2022-10-01T15:55:15.751Z,66.39
2022-10-01T15:58:10.192Z,67.03
2022-10-01T16:01:13.698Z,69.67
2022-10-01T16:04:10.364Z,67.66
2022-10-01T16:06:55.298Z,72.17
2022-10-01T16:09:51.292Z,67.75
2022-10-01T16:12:36.445Z,70.29
2022-10-01T16:15:27.944Z,70.03
2022-10-01T16:18:21.921Z,69.79
2022-10-01T16:21:09.690Z,71.03
2022-10-01T16:23:55.906Z,72.32
2022-10-01T16:26:41.247Z,72.03
2022-10-01T16:29:26.744Z,72.72
2022-10-01T16:32:14.336Z,72.10
2022-10-01T16:35:20.215Z,71.24
2022-10-01T16:38:09.424Z,70.40
2022-10-01T16:40:54.355Z,70.76
2022-10-01T16:43:39.168Z,70.71
2022-10-01T16:46:24.341Z,74.50
2022-10-01T16:49:13.647Z,72.72
2022-10-01T16:51:59.127Z,73.68
2022-10-01T16:54:44.887Z,75.39
2022-10-01T16:57:30.045Z,76.04
2022-10-01T17:00:17.558Z,76.97
2022-10-01T17:03:05.363Z,75.82
2022-10-01T17:05:50.251Z,76.43
2022-10-01T17:08:35.178Z,81.58
2022-10-01T17:11:20.752Z,80.00
2022-10-01T17:14:09.698Z,79.93
2022-10-01T17:16:55.027Z,84.88
2022-10-01T17:19:40.036Z,84.10
2022-10-01T17:22:25.372Z,84.51
2022-10-01T17:25:15.193Z,82.51
2022-10-01T17:28:02.350Z,84.82
2022-10-01T17:30:49.094Z,87.40
2022-10-01T17:33:34.089Z,89.04
2022-10-01T17:36:19.190Z,91.06
2022-10-01T17:39:04.223Z,92.08
2022-10-01T17:41:49.816Z,93.16
2022-10-01T17:44:34.535Z,93.59
2022-10-01T17:47:19.507Z,93.25
2022-10-01T17:50:04.814Z,94.81
2022-10-01T17:52:50.336Z,95.67
2022-10-01T17:55:39.836Z,96.71
2022-10-01T17:58:24.639Z,97.53
2022-10-01T18:01:13.189Z,97.77
2022-10-01T18:04:00.221Z,95.31
2022-10-01T18:06:46.824Z,98.16
2022-10-01T18:09:31.673Z,95.72
2022-10-01T18:12:16.555Z,97.63
2022-10-01T18:15:01.816Z,97.32
2022-10-01T18:17:51.851Z,97.96
2022-10-01T18:20:37.703Z,97.37
2022-10-01T18:23:22.577Z,96.66
2022-10-01T18:26:08.839Z,98.33
2022-10-01T18:28:53.664Z,98.58
2022-10-01T18:31:40.880Z,98.83
2022-10-01T18:34:45.015Z,99.10
2022-10-01T18:37:45.579Z,98.03
2022-10-01T18:40:40.036Z,99.17
2022-10-01T18:43:26.018Z,99.81
2022-10-01T18:46:40.519Z,99.94
2022-10-01T18:50:06.345Z,98.83
2022-10-01T18:53:12.667Z,98.50
2022-10-01T18:56:23.263Z,98.18
2022-10-01T18:59:43.253Z,94.48
2022-10-01T19:02:48.133Z,96.11
2022-10-01T19:06:05.140Z,97.94
2022-10-01T19:09:16.800Z,97.70
2022-10-01T19:12:34.751Z,98.57
2022-10-01T19:15:23.911Z,100.00
2022-10-01T19:18:33.504Z,100.00
2022-10-01T19:21:29.630Z,100.00
2022-10-01T19:24:52.010Z,100.00
2022-10-01T19:27:51.335Z,99.78
2022-10-01T19:31:08.814Z,99.80
2022-10-01T19:34:04.874Z,100.00
2022-10-01T19:36:59.656Z,100.00
2022-10-01T19:39:48.751Z,100.00
2022-10-01T19:42:38.206Z,100.00
2022-10-01T19:45:34.703Z,100.00
2022-10-01T19:48:29.310Z,100.00
2022-10-01T19:51:21.577Z,100.00
2022-10-01T19:54:16.752Z,100.00
2022-10-01T19:57:26.015Z,100.00
2022-10-01T20:00:19.006Z,100.00
2022-10-01T20:03:13.837Z,100.00
2022-10-01T20:06:24.814Z,100.00
2022-10-01T20:09:41.298Z,100.00
2022-10-01T20:12:38.586Z,100.00
2022-10-01T20:16:00.820Z,100.00
2022-10-01T20:19:05.131Z,100.00
2022-10-01T20:22:00.492Z,100.00
2022-10-01T20:25:14.600Z,100.00
2022-10-01T20:28:27.393Z,100.00
2022-10-01T20:31:24.894Z,100.00
2022-10-01T20:34:20.575Z,99.89
2022-10-01T20:37:25.453Z,96.95
2022-10-01T20:40:24.684Z,96.22
2022-10-01T20:43:19.251Z,96.12
2022-10-01T20:46:15.866Z,95.95
2022-10-01T20:49:05.136Z,95.41
2022-10-01T20:52:00.421Z,94.68
2022-10-01T20:54:53.876Z,95.27
2022-10-01T20:57:46.996Z,94.20
2022-10-01T21:00:32.609Z,95.69
2022-10-01T21:03:26.048Z,95.44
2022-10-01T21:06:16.483Z,95.49
2022-10-01T21:09:24.875Z,96.42
2022-10-01T21:12:18.217Z,96.24
2022-10-01T21:15:04.934Z,96.19
2022-10-01T21:18:15.052Z,95.94
2022-10-01T21:21:15.330Z,95.92
2022-10-01T21:24:11.088Z,97.68
2022-10-01T21:27:16.712Z,96.55
2022-10-01T21:30:18.431Z,97.07
2022-10-01T21:33:06.331Z,96.38
2022-10-01T21:35:56.509Z,96.98
2022-10-01T21:38:49.476Z,97.53
2022-10-01T21:41:59.018Z,96.94
2022-10-01T21:45:03.947Z,97.20
2022-10-01T21:48:08.491Z,96.39
2022-10-01T21:50:56.551Z,96.75
2022-10-01T21:54:19.190Z,97.18
2022-10-01T21:57:31.991Z,99.35
2022-10-01T22:00:28.440Z,99.19
2022-10-01T22:03:34.156Z,97.38
2022-10-01T22:06:36.082Z,99.02
2022-10-01T22:09:44.214Z,99.20
2022-10-01T22:12:33.925Z,98.40
2022-10-01T22:15:31.077Z,100.00
2022-10-01T22:18:24.507Z,99.07
2022-10-01T22:21:12.492Z,99.45
2022-10-01T22:24:14.323Z,99.91
2022-10-01T22:27:21.127Z,99.47
2022-10-01T22:30:17.341Z,98.77
2022-10-01T22:33:07.918Z,99.27
2022-10-01T22:36:00.399Z,100.00
2022-10-01T22:38:48.107Z,100.00
2022-10-01T22:41:40.107Z,100.00
2022-10-01T22:44:27.543Z,100.00
2022-10-01T22:47:32.891Z,100.00
2022-10-01T22:50:40.798Z,100.00
2022-10-01T22:53:31.288Z,100.00
2022-10-01T22:56:27.452Z,100.00
2022-10-01T22:59:40.914Z,100.00
2022-10-01T23:02:59.178Z,100.00
2022-10-01T23:05:58.143Z,100.00
2022-10-01T23:09:12.015Z,100.00
2022-10-01T23:12:19.597Z,100.00
2022-10-01T23:15:18.979Z,100.00
2022-10-01T23:18:30.290Z,100.00
2022-10-01T23:21:34.032Z,100.00
2022-10-01T23:24:43.864Z,100.00
2022-10-01T23:27:34.547Z,100.00
2022-10-01T23:30:20.464Z,100.00
2022-10-01T23:33:27.669Z,100.00
2022-10-01T23:36:35.711Z,100.00
2022-10-01T23:39:40.488Z,100.00
2022-10-01T23:42:38.390Z,100.00
2022-10-01T23:45:44.816Z,100.00
2022-10-01T23:48:38.059Z,100.00
2022-10-01T23:51:27.983Z,100.00
2022-10-01T23:54:43.345Z,100.00
2022-10-01T23:57:33.877Z,100.00
